Time;durP1;ratioP1;P1;durP2;ratioP2;P2;SDS_P1;SDS_P2;PMS_P1;PMS_P2;Temp;Humidity;BMP_temperature;BMP_pressure;BME280_temperature;BME280_humidity;BME280_pressure;Samples;Min_cycle;Max_cycle;Signal;HPM_P1;HPM_P2
2024/02/06 05:00:55;;;;;;;8.38;4.68;;;9.30;99.90;;;;;;5711071;23;20283;-70
2024/02/06 05:03:21;;;;;;;12.75;5.70;;;9.30;99.90;;;;;;4969665;28;20658;-69
2024/02/06 05:05:48;;;;;;;5.75;4.85;;;9.30;99.90;;;;;;4969655;28;20204;-69
2024/02/06 05:08:15;;;;;;;7.82;5.20;;;9.30;99.90;;;;;;4970430;28;20205;-69
2024/02/06 05:10:41;;;;;;;5.00;4.45;;;9.30;99.90;;;;;;4971073;28;20594;-69
2024/02/06 05:13:08;;;;;;;5.75;4.38;;;9.30;99.90;;;;;;4970649;28;20208;-69
2024/02/06 05:15:35;;;;;;;4.70;4.30;;;9.30;99.90;;;;;;4970426;28;20236;-70
2024/02/06 05:18:03;;;;;;;5.20;3.75;;;9.30;99.90;;;;;;4969461;28;20205;-69
2024/02/06 05:20:30;;;;;;;5.10;4.10;;;9.30;99.90;;;;;;4972960;28;20260;-69
2024/02/06 05:22:57;;;;;;;4.80;4.50;;;9.30;99.90;;;;;;4970508;28;20205;-69
2024/02/06 05:25:24;;;;;;;5.20;4.20;;;9.10;99.90;;;;;;4988850;28;20210;-70
2024/02/06 05:27:51;;;;;;;5.25;4.85;;;9.00;99.90;;;;;;4974434;28;20232;-69
2024/02/06 05:30:18;;;;;;;5.35;4.50;;;9.00;99.90;;;;;;4973887;28;20215;-69
2024/02/06 05:32:45;;;;;;;4.70;4.40;;;8.90;99.90;;;;;;4981507;28;20235;-69
2024/02/06 05:35:13;;;;;;;5.30;4.00;;;8.90;99.90;;;;;;4979179;28;20228;-70
2024/02/06 05:37:40;;;;;;;6.55;4.13;;;8.90;99.90;;;;;;4975718;28;20307;-69
2024/02/06 05:40:12;;;;;;;6.07;5.40;;;8.90;99.90;;;;;;4988738;28;20208;-69
2024/02/06 05:42:39;;;;;;;6.88;5.00;;;8.90;99.90;;;;;;4988722;28;20208;-68
2024/02/06 05:45:08;;;;;;;7.47;4.88;;;8.90;99.90;;;;;;4976398;28;20213;-69
2024/02/06 05:47:34;;;;;;;9.75;5.30;;;8.90;99.90;;;;;;4972882;28;20217;-68
2024/02/06 05:50:01;;;;;;;5.50;5.00;;;8.90;99.90;;;;;;4971095;28;20218;-68
2024/02/06 05:52:29;;;;;;;5.32;4.80;;;8.90;99.90;;;;;;4988030;28;20227;-69
2024/02/06 05:54:56;;;;;;;4.97;4.57;;;8.90;99.90;;;;;;4976344;28;20224;-69
2024/02/06 05:57:23;;;;;;;5.28;4.85;;;8.90;99.90;;;;;;4975884;28;20235;-71
2024/02/06 05:59:50;;;;;;;6.18;5.57;;;8.90;99.90;;;;;;4974095;28;20739;-69
2024/02/06 06:02:17;;;;;;;8.55;5.35;;;8.90;99.90;;;;;;4976969;28;20243;-70
2024/02/06 06:04:44;;;;;;;10.80;3.85;;;8.90;99.90;;;;;;4984205;28;20228;-69
2024/02/06 06:07:11;;;;;;;5.15;3.88;;;9.00;99.90;;;;;;4972526;28;20251;-69
2024/02/06 06:09:39;;;;;;;13.82;5.03;;;9.00;99.90;;;;;;4975637;28;20323;-69
2024/02/06 06:12:06;;;;;;;5.43;4.30;;;9.00;99.90;;;;;;4967958;28;20237;-69
2024/02/06 06:14:33;;;;;;;7.20;4.25;;;8.90;99.90;;;;;;4972476;28;20309;-69
2024/02/06 06:17:00;;;;;;;5.47;4.25;;;8.90;99.90;;;;;;4973004;28;20202;-69
2024/02/06 06:19:27;;;;;;;6.75;5.05;;;9.00;99.90;;;;;;4983048;28;20205;-70
2024/02/06 06:21:54;;;;;;;8.93;4.57;;;9.00;99.90;;;;;;4985277;28;20224;-69
2024/02/06 06:24:20;;;;;;;5.30;4.32;;;9.00;99.90;;;;;;4978443;28;20550;-69
2024/02/06 06:26:48;;;;;;;4.20;3.80;;;9.00;99.90;;;;;;4977370;28;20208;-69
2024/02/06 06:29:15;;;;;;;4.00;3.40;;;9.00;99.90;;;;;;4974549;28;20215;-69
2024/02/06 06:31:42;;;;;;;5.38;4.22;;;9.00;99.90;;;;;;4971956;28;20239;-68
2024/02/06 06:34:08;;;;;;;4.20;3.90;;;9.10;99.90;;;;;;4973327;28;20231;-67
2024/02/06 06:36:35;;;;;;;9.93;5.07;;;9.10;99.90;;;;;;4983960;28;20600;-69
2024/02/06 06:39:02;;;;;;;10.98;4.63;;;9.20;99.90;;;;;;4977414;28;20209;-69
2024/02/06 06:41:29;;;;;;;7.25;4.13;;;9.20;99.90;;;;;;4970448;28;20768;-69
2024/02/06 06:43:57;;;;;;;6.82;3.90;;;9.20;99.90;;;;;;4977662;28;20217;-68
2024/02/06 06:46:24;;;;;;;6.70;4.03;;;9.30;99.90;;;;;;4979336;28;20231;-68
2024/02/06 06:48:50;;;;;;;3.97;3.67;;;9.30;99.90;;;;;;4972434;28;21561;-69
2024/02/06 06:51:17;;;;;;;2.95;2.78;;;9.30;99.90;;;;;;4981744;28;20227;-69
2024/02/06 06:53:44;;;;;;;3.63;3.33;;;9.30;99.90;;;;;;4981906;28;20205;-69
2024/02/06 06:56:17;;;;;;;9.45;4.20;;;9.30;99.90;;;;;;4979716;28;20229;-69
2024/02/06 06:58:44;;;;;;;3.83;3.50;;;9.30;99.90;;;;;;4972195;28;20212;-68
2024/02/06 07:01:12;;;;;;;7.22;2.97;;;9.30;99.90;;;;;;4972314;28;20243;-68
2024/02/06 07:03:39;;;;;;;5.20;4.00;;;9.30;99.90;;;;;;4979190;28;20212;-69
2024/02/06 07:06:07;;;;;;;3.20;3.00;;;9.30;99.90;;;;;;4981491;28;20651;-67
2024/02/06 07:08:34;;;;;;;3.67;3.45;;;9.30;99.90;;;;;;4972393;28;20549;-68
2024/02/06 07:11:01;;;;;;;5.07;4.47;;;9.30;99.90;;;;;;4973182;28;20260;-68
2024/02/06 07:13:28;;;;;;;5.43;3.30;;;9.30;99.90;;;;;;4972041;28;20204;-68
2024/02/06 07:15:54;;;;;;;5.13;4.72;;;9.40;99.90;;;;;;4977411;28;20575;-69
2024/02/06 07:18:22;;;;;;;4.30;3.90;;;9.30;99.90;;;;;;4972033;28;20208;-68
2024/02/06 07:20:49;;;;;;;4.75;4.35;;;9.30;99.90;;;;;;4973274;28;20255;-68
2024/02/06 07:23:16;;;;;;;3.80;3.60;;;9.30;99.90;;;;;;4975048;28;20262;-70
2024/02/06 07:25:43;;;;;;;4.07;3.85;;;9.30;99.90;;;;;;4977948;28;20687;-68
2024/02/06 07:28:09;;;;;;;4.53;3.70;;;9.30;99.90;;;;;;4973393;28;20212;-68
2024/02/06 07:30:36;;;;;;;7.35;4.10;;;9.30;99.90;;;;;;4974046;28;20232;-68
2024/02/06 07:33:03;;;;;;;9.38;4.07;;;9.30;99.90;;;;;;4975395;28;20212;-68
2024/02/06 07:35:31;;;;;;;5.57;3.92;;;9.30;99.90;;;;;;4974562;28;20278;-69
2024/02/06 07:37:58;;;;;;;3.83;3.40;;;9.20;99.90;;;;;;4973685;28;20213;-69
2024/02/06 07:40:24;;;;;;;10.23;4.60;;;9.20;99.90;;;;;;4973576;28;20228;-69
2024/02/06 07:42:52;;;;;;;9.57;4.20;;;9.20;99.90;;;;;;4971360;28;20209;-69
2024/02/06 07:45:19;;;;;;;5.82;3.53;;;9.20;99.90;;;;;;4974284;28;20196;-70
2024/02/06 07:47:47;;;;;;;6.05;3.75;;;9.20;99.90;;;;;;4972357;28;20285;-69
2024/02/06 07:50:14;;;;;;;2.83;2.65;;;9.20;99.90;;;;;;4977887;28;20676;-69
2024/02/06 07:52:42;;;;;;;7.63;4.40;;;9.30;99.90;;;;;;4980931;28;20212;-70
2024/02/06 07:55:09;;;;;;;5.97;3.75;;;9.30;99.90;;;;;;4969306;28;20231;-67
2024/02/06 07:57:36;;;;;;;2.85;2.65;;;9.30;99.90;;;;;;4968625;28;20208;-69
2024/02/06 08:00:04;;;;;;;2.53;2.38;;;9.20;99.90;;;;;;4976920;28;20219;-69
2024/02/06 08:02:31;;;;;;;3.38;3.03;;;9.30;99.90;;;;;;4975528;28;20248;-69
2024/02/06 08:04:58;;;;;;;5.03;2.60;;;9.40;99.90;;;;;;4979827;28;20236;-70
2024/02/06 08:07:26;;;;;;;3.30;3.03;;;9.50;99.90;;;;;;4975210;28;20211;-70
2024/02/06 08:09:54;;;;;;;2.97;2.72;;;9.50;99.90;;;;;;4982477;28;20586;-70
2024/02/06 08:12:21;;;;;;;2.72;2.63;;;9.50;99.90;;;;;;4965849;28;20291;-70
2024/02/06 08:14:48;;;;;;;2.72;2.45;;;9.60;99.90;;;;;;4971705;28;20232;-70
2024/02/06 08:17:17;;;;;;;2.33;2.22;;;9.50;99.90;;;;;;4972637;28;20682;-70
2024/02/06 08:19:44;;;;;;;3.53;3.22;;;9.50;99.90;;;;;;4978377;28;20235;-70
2024/02/06 08:22:12;;;;;;;3.13;2.92;;;9.50;99.90;;;;;;4968657;28;20280;-71
2024/02/06 08:24:38;;;;;;;2.92;2.72;;;9.50;99.90;;;;;;4969737;28;20209;-70
2024/02/06 08:27:07;;;;;;;5.18;3.90;;;9.50;99.90;;;;;;4974422;28;20235;-70
2024/02/06 08:29:33;;;;;;;3.50;2.83;;;9.50;99.90;;;;;;4971227;28;20212;-70
2024/02/06 08:32:00;;;;;;;2.60;2.40;;;9.50;99.90;;;;;;4970998;28;20228;-70
2024/02/06 08:34:27;;;;;;;3.53;3.22;;;9.50;99.90;;;;;;4977440;28;20204;-70
2024/02/06 08:36:53;;;;;;;3.35;3.03;;;9.50;99.90;;;;;;4975685;28;20582;-69
2024/02/06 08:39:20;;;;;;;2.58;2.50;;;9.50;99.90;;;;;;4975865;28;20236;-69
2024/02/06 08:41:47;;;;;;;6.25;3.80;;;9.50;99.90;;;;;;4971651;28;20275;-70
2024/02/06 08:44:15;;;;;;;4.05;3.75;;;9.50;99.90;;;;;;4970462;28;20204;-70
2024/02/06 08:46:42;;;;;;;3.67;2.95;;;9.60;99.90;;;;;;4972402;28;20211;-70
2024/02/06 08:49:09;;;;;;;3.72;3.45;;;9.50;99.90;;;;;;4976316;28;20579;-70
2024/02/06 08:51:36;;;;;;;4.07;2.85;;;9.60;99.90;;;;;;4971328;28;20629;-70
2024/02/06 08:54:03;;;;;;;3.83;3.47;;;9.60;99.90;;;;;;4970360;28;20223;-70
2024/02/06 08:56:31;;;;;;;2.22;2.05;;;9.60;99.90;;;;;;4977988;28;20237;-69
2024/02/06 08:58:57;;;;;;;3.40;3.13;;;9.70;99.90;;;;;;4967597;28;20530;-72
2024/02/06 09:01:26;;;;;;;4.88;2.60;;;9.70;99.90;;;;;;4970708;28;20236;-69
2024/02/06 09:03:53;;;;;;;2.47;2.38;;;9.60;99.90;;;;;;4970907;28;20212;-70
2024/02/06 09:06:21;;;;;;;3.00;2.78;;;9.60;99.90;;;;;;4977265;28;20212;-68
2024/02/06 09:08:48;;;;;;;2.92;2.70;;;9.50;99.90;;;;;;4983426;28;20567;-69
2024/02/06 09:11:14;;;;;;;2.97;1.95;;;9.50;99.90;;;;;;4984360;28;20224;-69
2024/02/06 09:13:41;;;;;;;2.70;2.25;;;9.50;99.90;;;;;;4983550;28;20211;-70
2024/02/06 09:16:08;;;;;;;5.55;2.60;;;9.50;99.90;;;;;;4979856;28;20224;-70
2024/02/06 09:18:36;;;;;;;2.35;2.25;;;9.50;99.90;;;;;;4979823;28;20213;-70
2024/02/06 09:21:03;;;;;;;3.20;2.97;;;9.50;99.90;;;;;;4973985;28;20236;-69
2024/02/06 09:23:30;;;;;;;2.92;2.70;;;9.50;99.90;;;;;;4975478;28;20594;-70
2024/02/06 09:25:56;;;;;;;3.65;3.25;;;9.50;99.90;;;;;;4975408;28;20671;-69
2024/02/06 09:28:23;;;;;;;2.55;2.45;;;9.50;99.90;;;;;;4975237;28;20851;-70
2024/02/06 09:30:49;;;;;;;4.32;3.47;;;9.50;99.90;;;;;;4974645;28;20266;-71
2024/02/06 09:33:15;;;;;;;2.80;2.70;;;9.50;99.90;;;;;;4979330;28;20612;-71
2024/02/06 09:35:43;;;;;;;4.40;2.55;;;9.50;99.90;;;;;;4974866;28;20232;-70
2024/02/06 09:38:10;;;;;;;12.73;3.38;;;9.40;99.90;;;;;;4973282;28;20235;-71
2024/02/06 09:40:37;;;;;;;2.00;1.80;;;9.50;99.90;;;;;;4977985;28;20231;-70
2024/02/06 09:43:05;;;;;;;2.95;2.70;;;9.40;99.90;;;;;;4976489;28;20363;-69
2024/02/06 09:45:32;;;;;;;3.42;2.10;;;9.50;99.90;;;;;;4972046;28;20209;-68
2024/02/06 09:47:59;;;;;;;5.65;2.70;;;9.40;99.90;;;;;;4974679;28;20212;-68
2024/02/06 09:50:26;;;;;;;3.45;2.30;;;9.50;99.90;;;;;;4979307;28;20205;-68
2024/02/06 09:52:59;;;;;;;1.67;1.60;;;9.50;99.90;;;;;;4971114;28;20224;-69
2024/02/06 09:55:26;;;;;;;2.75;2.65;;;9.50;99.90;;;;;;4972486;28;20232;-68
2024/02/06 09:57:54;;;;;;;4.85;2.50;;;9.50;99.90;;;;;;4969270;28;20204;-68
2024/02/06 10:00:23;;;;;;;3.47;3.28;;;9.50;99.90;;;;;;4974651;28;20207;-70
2024/02/06 10:02:54;;;;;;;5.43;2.65;;;9.40;99.90;;;;;;4982594;28;20687;-68
2024/02/06 10:05:24;;;;;;;2.22;2.08;;;9.40;99.90;;;;;;4975137;28;20267;-69
2024/02/06 10:07:51;;;;;;;2.42;2.22;;;9.40;99.90;;;;;;4973275;28;20216;-68
2024/02/06 10:10:20;;;;;;;5.95;2.53;;;9.40;99.90;;;;;;4975635;28;20208;-70
2024/02/06 10:12:47;;;;;;;2.65;2.55;;;9.50;99.90;;;;;;4973527;28;20216;-70
2024/02/06 10:15:17;;;;;;;2.42;2.30;;;9.50;99.90;;;;;;4977691;28;20231;-70
2024/02/06 10:17:44;;;;;;;3.90;3.60;;;9.50;99.90;;;;;;4972227;28;20208;-70
2024/02/06 10:20:12;;;;;;;3.42;3.22;;;9.50;99.90;;;;;;4970065;28;20208;-70
2024/02/06 10:22:40;;;;;;;5.10;3.13;;;9.50;99.90;;;;;;4967853;28;20208;-70
2024/02/06 10:25:08;;;;;;;4.00;3.15;;;9.50;99.90;;;;;;4973775;28;20205;-70
2024/02/06 10:27:36;;;;;;;3.03;2.70;;;9.50;99.90;;;;;;4972655;28;20208;-70
2024/02/06 10:30:06;;;;;;;4.15;2.70;;;9.50;99.90;;;;;;4971884;28;20208;-70
2024/02/06 10:32:34;;;;;;;2.40;2.20;;;9.50;99.90;;;;;;4966655;28;20331;-70
2024/02/06 10:35:02;;;;;;;5.40;2.80;;;9.60;99.90;;;;;;4969471;28;20223;-70
2024/02/06 10:37:29;;;;;;;3.20;2.90;;;9.60;99.90;;;;;;4971464;28;20216;-70
2024/02/06 10:39:57;;;;;;;4.70;2.47;;;9.60;99.90;;;;;;4976318;28;20216;-70
2024/02/06 10:42:24;;;;;;;2.38;2.28;;;9.60;99.90;;;;;;4970359;28;20232;-71
2024/02/06 10:44:56;;;;;;;3.92;3.65;;;9.60;99.90;;;;;;4976337;28;20232;-70
2024/02/06 10:47:23;;;;;;;3.65;2.75;;;9.60;99.90;;;;;;4970550;28;20205;-70
2024/02/06 10:50:01;;;;;;;4.15;3.85;;;9.60;99.90;;;;;;4972661;28;20236;-70
2024/02/06 10:52:28;;;;;;;3.40;2.67;;;9.60;99.90;;;;;;4973406;28;20223;-69
2024/02/06 10:54:55;;;;;;;3.05;2.78;;;9.70;99.90;;;;;;4972410;28;20201;-70
2024/02/06 10:57:25;;;;;;;3.08;2.67;;;9.70;99.90;;;;;;4968415;28;20224;-69
2024/02/06 10:59:55;;;;;;;2.83;2.63;;;9.70;99.90;;;;;;4970549;28;20220;-68
2024/02/06 11:02:25;;;;;;;4.00;2.42;;;9.70;99.90;;;;;;4968164;28;20746;-69
2024/02/06 11:05:03;;;;;;;3.63;3.35;;;9.70;99.90;;;;;;4969825;28;20572;-70
2024/02/06 11:07:35;;;;;;;2.75;2.63;;;9.70;99.90;;;;;;4972203;28;20316;-68
2024/02/06 11:10:03;;;;;;;3.40;3.20;;;9.60;99.90;;;;;;4967103;28;20212;-69
2024/02/06 11:12:32;;;;;;;3.30;2.65;;;9.60;99.90;;;;;;4967740;28;20228;-69
2024/02/06 11:15:02;;;;;;;6.40;2.95;;;9.60;99.90;;;;;;4971422;28;20212;-70
2024/02/06 11:17:32;;;;;;;2.90;2.70;;;9.60;99.90;;;;;;4968307;28;20255;-70
2024/02/06 11:20:05;;;;;;;3.75;3.47;;;9.50;99.90;;;;;;4966913;28;20205;-69
2024/02/06 11:22:36;;;;;;;9.38;3.70;;;9.50;99.90;;;;;;4975286;28;20234;-67
2024/02/06 11:25:04;;;;;;;3.22;2.80;;;9.60;99.90;;;;;;4973460;28;20204;-69
2024/02/06 11:27:31;;;;;;;3.70;2.20;;;9.60;99.90;;;;;;4970754;28;20684;-69
2024/02/06 11:29:58;;;;;;;4.30;3.45;;;9.70;99.90;;;;;;4964188;28;20587;-69
2024/02/06 11:32:25;;;;;;;3.58;1.90;;;9.70;99.90;;;;;;4969873;28;20562;-70
2024/02/06 11:34:54;;;;;;;2.85;2.65;;;9.80;99.90;;;;;;4975263;28;20212;-68
2024/02/06 11:37:25;;;;;;;3.03;2.70;;;9.80;99.90;;;;;;4969269;28;20229;-69
2024/02/06 11:40:04;;;;;;;3.28;2.83;;;9.80;99.90;;;;;;4975906;28;20216;-67
2024/02/06 11:42:30;;;;;;;2.97;2.78;;;9.80;99.90;;;;;;4974228;28;20230;-68
2024/02/06 11:45:05;;;;;;;4.00;3.33;;;9.80;99.90;;;;;;4966475;28;20209;-69
2024/02/06 11:47:32;;;;;;;4.95;3.25;;;9.90;99.90;;;;;;4973885;28;20231;-69
2024/02/06 11:50:08;;;;;;;8.52;2.38;;;9.90;99.90;;;;;;4975524;28;20212;-70
2024/02/06 11:52:35;;;;;;;4.13;3.67;;;10.00;99.90;;;;;;4966743;28;20231;-70
2024/02/06 11:55:03;;;;;;;3.40;3.20;;;10.10;99.90;;;;;;4968242;28;20205;-68
2024/02/06 11:57:31;;;;;;;2.83;2.63;;;10.10;99.90;;;;;;4972714;28;20228;-67
2024/02/06 11:59:57;;;;;;;6.00;2.40;;;10.20;99.90;;;;;;4967134;28;20590;-67
2024/02/06 12:02:24;;;;;;;3.67;2.83;;;10.20;99.90;;;;;;4970428;28;20229;-67
2024/02/06 12:04:51;;;;;;;2.25;2.05;;;10.20;99.90;;;;;;4969096;28;20205;-68
2024/02/06 12:07:21;;;;;;;4.50;2.85;;;10.30;99.90;;;;;;4968600;28;20215;-68
2024/02/06 12:09:49;;;;;;;3.22;3.03;;;10.30;99.90;;;;;;4969936;28;20211;-68
2024/02/06 12:12:17;;;;;;;2.40;2.20;;;10.30;99.90;;;;;;4965171;28;20311;-68
2024/02/06 12:14:45;;;;;;;4.57;3.17;;;10.30;99.90;;;;;;4967260;28;20212;-68
2024/02/06 12:17:13;;;;;;;3.67;3.03;;;10.30;99.90;;;;;;4967427;28;20281;-67
2024/02/06 12:19:41;;;;;;;2.83;2.60;;;10.30;99.90;;;;;;4972608;28;20217;-67
2024/02/06 12:22:08;;;;;;;5.25;2.95;;;10.30;99.90;;;;;;4970493;28;20221;-68
2024/02/06 12:24:36;;;;;;;2.28;2.22;;;10.30;99.90;;;;;;4972535;28;20742;-67
2024/02/06 12:27:04;;;;;;;4.78;4.30;;;10.20;99.90;;;;;;4972828;28;21159;-67
2024/02/06 12:29:36;;;;;;;2.83;2.65;;;10.20;99.90;;;;;;4969282;28;20217;-67
2024/02/06 12:32:04;;;;;;;4.65;2.22;;;10.20;99.90;;;;;;4967708;28;20804;-67
2024/02/06 12:34:31;;;;;;;2.78;2.08;;;10.20;99.90;;;;;;4967449;28;20214;-67
2024/02/06 12:36:59;;;;;;;5.78;2.05;;;10.20;99.90;;;;;;4967905;28;20225;-68
2024/02/06 12:39:25;;;;;;;2.40;2.38;;;10.20;99.90;;;;;;4973273;28;20210;-67
2024/02/06 12:42:01;;;;;;;2.92;2.70;;;10.30;99.90;;;;;;4969857;28;20237;-68
2024/02/06 12:44:29;;;;;;;2.63;2.40;;;10.30;99.90;;;;;;4968934;28;20205;-68
2024/02/06 12:46:58;;;;;;;1.90;1.80;;;10.30;99.90;;;;;;4968479;28;20691;-67
2024/02/06 12:49:25;;;;;;;2.55;2.25;;;10.30;99.90;;;;;;4971652;28;20687;-68
2024/02/06 12:51:54;;;;;;;2.28;2.10;;;10.30;99.90;;;;;;4970826;28;20248;-67
2024/02/06 12:54:21;;;;;;;5.35;1.90;;;10.30;99.90;;;;;;4970714;28;20225;-68
2024/02/06 12:56:48;;;;;;;3.17;2.38;;;10.30;99.90;;;;;;4974629;28;20225;-67
2024/02/06 12:59:16;;;;;;;1.58;1.48;;;10.40;99.90;;;;;;4972006;28;20294;-67
2024/02/06 13:01:44;;;;;;;2.47;2.35;;;10.30;99.90;;;;;;4968918;28;20322;-68
2024/02/06 13:04:09;;;;;;;3.53;3.42;;;10.30;99.90;;;;;;4969447;28;20626;-68
2024/02/06 13:06:37;;;;;;;3.23;2.27;;;10.30;99.90;;;;;;4971593;28;20201;-67
2024/02/06 13:09:04;;;;;;;2.00;1.90;;;10.30;99.90;;;;;;4970758;28;20481;-68
2024/02/06 13:11:31;;;;;;;2.60;2.40;;;10.30;99.90;;;;;;4972407;28;20318;-68
2024/02/06 13:13:59;;;;;;;2.50;2.40;;;10.30;99.90;;;;;;4965106;28;20217;-68
2024/02/06 13:16:27;;;;;;;2.85;2.65;;;10.20;99.90;;;;;;4975709;28;20228;-68
2024/02/06 13:18:58;;;;;;;1.83;1.73;;;10.00;99.90;;;;;;4971998;28;20210;-67
2024/02/06 13:21:25;;;;;;;3.10;2.13;;;9.90;99.90;;;;;;4970334;28;20327;-69
2024/02/06 13:23:52;;;;;;;3.22;2.88;;;9.90;99.90;;;;;;4970296;28;20221;-68
2024/02/06 13:26:20;;;;;;;2.35;2.25;;;9.90;99.90;;;;;;4975312;28;20207;-68
2024/02/06 13:28:57;;;;;;;3.25;2.80;;;9.80;99.90;;;;;;4969831;28;20217;-68
2024/02/06 13:31:23;;;;;;;7.03;2.65;;;9.80;99.90;;;;;;4968424;28;20228;-68
2024/02/06 13:33:52;;;;;;;3.75;2.25;;;9.80;99.90;;;;;;4969439;28;20296;-68
2024/02/06 13:36:19;;;;;;;3.40;2.20;;;9.80;99.90;;;;;;4956262;28;20733;-68
2024/02/06 13:38:46;;;;;;;4.45;2.70;;;9.80;99.90;;;;;;4965085;28;20207;-69
2024/02/06 13:41:13;;;;;;;5.45;2.45;;;9.80;99.90;;;;;;4967379;28;20231;-69
2024/02/06 13:43:40;;;;;;;2.72;2.60;;;9.80;99.90;;;;;;4975902;28;20227;-68
2024/02/06 13:46:07;;;;;;;8.55;3.90;;;9.80;99.90;;;;;;4964096;28;20295;-68
2024/02/06 13:48:35;;;;;;;3.60;3.30;;;9.80;99.90;;;;;;4973143;28;20296;-68
2024/02/06 13:51:03;;;;;;;2.92;2.80;;;9.80;99.90;;;;;;4974256;28;20220;-68
2024/02/06 13:53:29;;;;;;;4.20;2.80;;;9.80;99.90;;;;;;4972953;28;20223;-68
2024/02/06 13:55:56;;;;;;;3.35;2.83;;;9.80;99.90;;;;;;4971732;28;20205;-68
2024/02/06 13:58:23;;;;;;;3.08;2.80;;;9.80;99.90;;;;;;4977275;28;20248;-68
2024/02/06 14:00:51;;;;;;;3.40;3.08;;;9.90;99.90;;;;;;4976467;28;20306;-68
2024/02/06 14:03:18;;;;;;;3.35;3.10;;;9.80;99.90;;;;;;4976407;28;20262;-68
2024/02/06 14:05:45;;;;;;;7.03;3.30;;;9.80;99.90;;;;;;4973872;28;20622;-68
2024/02/06 14:08:13;;;;;;;2.78;2.38;;;9.80;99.90;;;;;;4977049;28;20710;-68
2024/02/06 14:10:40;;;;;;;5.25;4.18;;;9.90;99.90;;;;;;4978876;28;20229;-68
2024/02/06 14:13:07;;;;;;;3.42;3.17;;;9.90;99.90;;;;;;4975430;28;20212;-68
2024/02/06 14:15:34;;;;;;;4.22;2.67;;;9.90;99.90;;;;;;4972744;28;20609;-68
2024/02/06 14:18:01;;;;;;;6.18;2.38;;;9.90;99.90;;;;;;4971465;28;20228;-67
2024/02/06 14:20:28;;;;;;;9.60;3.08;;;9.90;99.90;;;;;;4971019;28;20208;-68
2024/02/06 14:22:55;;;;;;;3.45;3.15;;;9.90;99.90;;;;;;4976710;28;20217;-68
2024/02/06 14:25:23;;;;;;;6.75;3.40;;;10.00;99.90;;;;;;4962929;28;20213;-67
2024/02/06 14:27:49;;;;;;;6.57;2.80;;;10.00;99.90;;;;;;4972854;28;20204;-67
2024/02/06 14:30:16;;;;;;;4.30;3.70;;;10.00;99.90;;;;;;4972901;28;20217;-68
2024/02/06 14:32:43;;;;;;;8.93;2.60;;;10.00;99.90;;;;;;4970230;28;20207;-67
2024/02/06 14:35:09;;;;;;;6.57;3.25;;;10.00;99.90;;;;;;4971754;28;20227;-68
2024/02/06 14:37:36;;;;;;;2.97;2.88;;;10.10;99.90;;;;;;4974472;28;20231;-68
2024/02/06 14:40:03;;;;;;;3.33;3.13;;;10.10;99.90;;;;;;4971583;28;20211;-68
2024/02/06 14:42:31;;;;;;;2.40;2.28;;;10.10;99.90;;;;;;4972992;28;20233;-68
2024/02/06 14:44:58;;;;;;;2.88;2.60;;;10.10;99.90;;;;;;4966070;28;20205;-68
2024/02/06 14:47:25;;;;;;;8.18;3.22;;;10.20;99.90;;;;;;4972425;28;20205;-68
2024/02/06 14:49:51;;;;;;;3.88;3.28;;;10.20;99.90;;;;;;4970164;28;20207;-68
2024/02/06 14:52:19;;;;;;;3.05;2.85;;;10.20;99.90;;;;;;4969921;28;20318;-68
2024/02/06 14:54:45;;;;;;;4.18;3.55;;;10.30;99.90;;;;;;4973551;28;20207;-68
2024/02/06 14:57:13;;;;;;;2.78;2.20;;;10.30;99.90;;;;;;4969206;28;20226;-68
2024/02/06 14:59:41;;;;;;;4.18;2.65;;;10.30;99.90;;;;;;4967464;28;20209;-67
2024/02/06 15:02:07;;;;;;;5.72;2.75;;;10.30;99.90;;;;;;4973251;28;20236;-68
2024/02/06 15:04:36;;;;;;;3.65;3.25;;;10.30;99.90;;;;;;4968565;28;20231;-67
2024/02/06 15:07:03;;;;;;;2.22;2.13;;;10.30;99.90;;;;;;4972299;28;20197;-68
2024/02/06 15:09:31;;;;;;;2.58;2.47;;;10.30;99.90;;;;;;4970311;28;20215;-68
2024/02/06 15:11:58;;;;;;;2.25;2.15;;;10.30;99.90;;;;;;4969116;28;20224;-68
2024/02/06 15:14:25;;;;;;;5.45;2.65;;;10.30;99.90;;;;;;4971029;28;20272;-67
2024/02/06 15:16:53;;;;;;;3.10;2.15;;;10.30;99.90;;;;;;4969092;28;20229;-68
2024/02/06 15:19:20;;;;;;;2.95;2.75;;;10.30;99.90;;;;;;4969798;28;20209;-68
2024/02/06 15:21:47;;;;;;;5.20;3.03;;;10.40;99.90;;;;;;4965172;28;20239;-67
2024/02/06 15:24:14;;;;;;;4.22;2.33;;;10.40;99.90;;;;;;4970635;28;20213;-67
2024/02/06 15:26:41;;;;;;;2.40;2.20;;;10.30;99.90;;;;;;4970790;28;20267;-68
2024/02/06 15:29:07;;;;;;;9.65;4.03;;;10.40;99.90;;;;;;4969102;28;20308;-68
2024/02/06 15:31:34;;;;;;;7.15;3.15;;;10.40;99.90;;;;;;4968943;28;20233;-68
2024/02/06 15:34:02;;;;;;;2.30;2.20;;;10.40;99.90;;;;;;4962561;28;20212;-68
2024/02/06 15:36:29;;;;;;;2.35;2.15;;;10.40;99.90;;;;;;4967685;28;20214;-68
2024/02/06 15:38:55;;;;;;;5.53;4.25;;;10.40;99.90;;;;;;4974594;28;20239;-68
2024/02/06 15:41:23;;;;;;;2.85;2.65;;;10.40;99.90;;;;;;4962646;28;20343;-68
2024/02/06 15:43:50;;;;;;;2.53;2.25;;;10.40;99.90;;;;;;4970743;28;20279;-67
2024/02/06 15:46:17;;;;;;;2.88;2.65;;;10.40;99.90;;;;;;4968921;28;20205;-68
2024/02/06 15:48:44;;;;;;;2.58;2.25;;;10.40;99.90;;;;;;4968930;28;20213;-68
2024/02/06 15:51:12;;;;;;;2.47;2.35;;;10.40;99.90;;;;;;4970009;28;20343;-68
2024/02/06 15:53:39;;;;;;;2.70;2.50;;;10.40;99.90;;;;;;4970473;28;20208;-68
2024/02/06 15:56:07;;;;;;;9.95;2.58;;;10.40;99.90;;;;;;4967963;28;20205;-68
2024/02/06 15:58:33;;;;;;;1.38;1.27;;;10.40;99.90;;;;;;4968285;28;20235;-67
2024/02/06 16:01:00;;;;;;;3.17;2.85;;;10.40;99.90;;;;;;4963642;28;20248;-68
2024/02/06 16:03:27;;;;;;;9.85;3.10;;;10.30;99.90;;;;;;4971371;28;20202;-68
2024/02/06 16:05:53;;;;;;;3.70;2.60;;;10.30;99.90;;;;;;4970662;28;20220;-70
2024/02/06 16:08:21;;;;;;;2.35;1.95;;;10.30;99.90;;;;;;4971911;28;20200;-68
2024/02/06 16:10:48;;;;;;;3.13;3.00;;;10.20;99.90;;;;;;4967656;28;20225;-69
2024/02/06 16:13:15;;;;;;;3.45;2.47;;;10.30;99.90;;;;;;4970494;28;20212;-70
2024/02/06 16:15:42;;;;;;;4.30;3.10;;;10.30;99.90;;;;;;4968419;28;22019;-69
2024/02/06 16:18:08;;;;;;;4.07;2.38;;;10.30;99.90;;;;;;4968641;28;20237;-69
2024/02/06 16:20:35;;;;;;;3.78;2.42;;;10.40;99.90;;;;;;4971184;28;20676;-69
2024/02/06 16:23:02;;;;;;;2.95;2.75;;;10.40;99.90;;;;;;4971575;28;20212;-69
2024/02/06 16:25:30;;;;;;;3.97;2.67;;;10.30;99.90;;;;;;4966338;28;20718;-70
2024/02/06 16:27:57;;;;;;;2.60;2.35;;;10.30;99.90;;;;;;4963025;28;20207;-70
2024/02/06 16:30:24;;;;;;;2.33;2.20;;;10.40;99.90;;;;;;4968060;28;20591;-69
2024/02/06 16:32:51;;;;;;;4.85;2.42;;;10.30;99.90;;;;;;4968702;28;20213;-69
2024/02/06 16:35:18;;;;;;;2.47;1.92;;;10.30;99.90;;;;;;4962865;28;20209;-69
2024/02/06 16:37:45;;;;;;;2.85;2.65;;;10.30;99.90;;;;;;4968688;28;20241;-69
2024/02/06 16:40:15;;;;;;;7.00;3.08;;;10.20;99.90;;;;;;4966621;28;20273;-68
2024/02/06 16:42:43;;;;;;;2.53;2.45;;;10.20;99.90;;;;;;4966545;28;20252;-70
2024/02/06 16:45:10;;;;;;;3.03;2.65;;;10.10;99.90;;;;;;4967126;28;20200;-70
2024/02/06 16:47:37;;;;;;;4.65;2.45;;;10.10;99.90;;;;;;4970632;28;20217;-69
2024/02/06 16:50:04;;;;;;;3.00;2.67;;;10.20;99.90;;;;;;4968583;28;20210;-69
2024/02/06 16:52:31;;;;;;;3.25;3.05;;;10.10;99.90;;;;;;4968994;28;20225;-69
2024/02/06 16:54:58;;;;;;;6.47;2.83;;;10.10;99.90;;;;;;4966512;28;20205;-70
2024/02/06 16:57:25;;;;;;;1.30;1.30;;;10.10;99.90;;;;;;4969224;28;20279;-69
2024/02/06 16:59:53;;;;;;;2.35;1.58;;;10.10;99.90;;;;;;4966688;28;20205;-69
2024/02/06 17:02:20;;;;;;;5.80;2.40;;;10.10;99.90;;;;;;4968771;28;20240;-69
2024/02/06 17:04:47;;;;;;;1.50;1.50;;;10.10;99.90;;;;;;4966779;28;20350;-70
2024/02/06 17:07:13;;;;;;;1.52;1.42;;;10.00;99.90;;;;;;4968770;28;20206;-69
2024/02/06 17:09:40;;;;;;;4.00;2.35;;;10.00;99.90;;;;;;4968026;28;20209;-70
2024/02/06 17:12:07;;;;;;;1.83;1.73;;;10.00;99.90;;;;;;4966944;28;20231;-70
2024/02/06 17:14:34;;;;;;;1.80;1.40;;;10.00;99.90;;;;;;4970983;28;20240;-70
2024/02/06 17:17:02;;;;;;;1.88;1.77;;;9.90;99.90;;;;;;4967310;28;20673;-70
2024/02/06 17:19:29;;;;;;;1.75;1.20;;;9.80;99.90;;;;;;4967704;28;20256;-70
2024/02/06 17:21:55;;;;;;;2.03;1.35;;;9.70;99.90;;;;;;4971269;28;20224;-70
2024/02/06 17:24:22;;;;;;;1.10;1.10;;;9.70;99.90;;;;;;4971062;28;20693;-70
2024/02/06 17:26:49;;;;;;;1.30;1.30;;;9.60;99.90;;;;;;4973525;28;20231;-70
2024/02/06 17:29:15;;;;;;;2.08;1.33;;;9.70;99.90;;;;;;4980888;28;20211;-70
2024/02/06 17:31:42;;;;;;;1.60;1.60;;;9.70;99.90;;;;;;4969802;28;20224;-70
2024/02/06 17:34:10;;;;;;;1.30;1.20;;;9.60;99.90;;;;;;4974087;28;20205;-70
2024/02/06 17:36:37;;;;;;;1.20;1.20;;;9.60;99.90;;;;;;4974386;28;20213;-71
2024/02/06 17:39:04;;;;;;;1.20;1.17;;;9.60;99.90;;;;;;4974721;28;20232;-71
2024/02/06 17:41:31;;;;;;;1.20;1.10;;;9.60;99.90;;;;;;4972543;28;20287;-70
2024/02/06 17:43:58;;;;;;;1.85;1.10;;;9.50;99.90;;;;;;4970953;28;20211;-70
2024/02/06 17:46:25;;;;;;;1.40;1.17;;;9.60;99.90;;;;;;4967679;28;20605;-71
2024/02/06 17:48:51;;;;;;;1.45;1.30;;;9.50;99.90;;;;;;4969393;28;20211;-71
2024/02/06 17:51:20;;;;;;;1.27;1.00;;;9.60;99.90;;;;;;4981402;28;20251;-70
2024/02/06 17:53:46;;;;;;;1.25;1.25;;;9.60;99.90;;;;;;4985570;28;20216;-70